sensor_id;sensor_type;location;lat;lon;timestamp;temperature;humidity
37300;DHT22;23184;51.902;12.836;2023-03-14T00:00:21;11.10;99.90
37300;DHT22;23184;51.902;12.836;2023-03-14T00:02:54;11.00;99.90
37300;DHT22;23184;51.902;12.836;2023-03-14T00:05:19;10.90;99.90
37300;DHT22;23184;51.902;12.836;2023-03-14T00:07:45;10.80;99.90
37300;DHT22;23184;51.902;12.836;2023-03-14T00:10:12;10.80;99.90
37300;DHT22;23184;51.902;12.836;2023-03-14T00:12:39;10.80;99.90
37300;DHT22;23184;51.902;12.836;2023-03-14T00:15:05;10.70;99.90
37300;DHT22;23184;51.902;12.836;2023-03-14T00:17:32;10.80;99.90
37300;DHT22;23184;51.902;12.836;2023-03-14T00:19:58;10.70;99.90
37300;DHT22;23184;51.902;12.836;2023-03-14T00:22:30;10.70;99.90
37300;DHT22;23184;51.902;12.836;2023-03-14T00:24:56;10.60;99.90
37300;DHT22;23184;51.902;12.836;2023-03-14T00:27:22;10.60;99.90
37300;DHT22;23184;51.902;12.836;2023-03-14T00:29:47;10.60;99.90
37300;DHT22;23184;51.902;12.836;2023-03-14T00:32:13;10.60;99.90
37300;DHT22;23184;51.902;12.836;2023-03-14T00:34:38;10.50;99.90
37300;DHT22;23184;51.902;12.836;2023-03-14T00:37:05;10.40;99.90
37300;DHT22;23184;51.902;12.836;2023-03-14T00:39:30;10.40;99.90
37300;DHT22;23184;51.902;12.836;2023-03-14T00:41:56;10.30;99.90
37300;DHT22;23184;51.902;12.836;2023-03-14T00:44:21;10.30;99.90
37300;DHT22;23184;51.902;12.836;2023-03-14T00:46:47;10.30;99.90
37300;DHT22;23184;51.902;12.836;2023-03-14T00:49:12;10.30;99.90
37300;DHT22;23184;51.902;12.836;2023-03-14T00:51:38;10.30;99.90
37300;DHT22;23184;51.902;12.836;2023-03-14T00:54:03;10.40;99.90
37300;DHT22;23184;51.902;12.836;2023-03-14T00:56:29;10.40;99.90
37300;DHT22;23184;51.902;12.836;2023-03-14T00:58:55;10.40;99.90
37300;DHT22;23184;51.902;12.836;2023-03-14T01:01:22;10.40;99.90
37300;DHT22;23184;51.902;12.836;2023-03-14T01:03:51;10.40;99.90
37300;DHT22;23184;51.902;12.836;2023-03-14T01:06:20;10.50;99.90
37300;DHT22;23184;51.902;12.836;2023-03-14T01:08:46;10.60;99.90
37300;DHT22;23184;51.902;12.836;2023-03-14T01:11:18;10.60;99.90
37300;DHT22;23184;51.902;12.836;2023-03-14T01:13:44;10.60;99.90
37300;DHT22;23184;51.902;12.836;2023-03-14T01:16:11;10.70;99.90
37300;DHT22;23184;51.902;12.836;2023-03-14T01:18:38;10.70;99.90
37300;DHT22;23184;51.902;12.836;2023-03-14T01:21:13;10.80;99.90
37300;DHT22;23184;51.902;12.836;2023-03-14T01:23:39;10.90;99.90
37300;DHT22;23184;51.902;12.836;2023-03-14T01:26:04;10.90;99.90
37300;DHT22;23184;51.902;12.836;2023-03-14T01:28:33;10.90;99.90
37300;DHT22;23184;51.902;12.836;2023-03-14T01:31:03;10.80;99.90
37300;DHT22;23184;51.902;12.836;2023-03-14T01:33:29;10.90;99.90
37300;DHT22;23184;51.902;12.836;2023-03-14T01:35:54;10.90;99.90
37300;DHT22;23184;51.902;12.836;2023-03-14T01:38:19;10.90;99.90
37300;DHT22;23184;51.902;12.836;2023-03-14T01:40:45;10.90;99.90
37300;DHT22;23184;51.902;12.836;2023-03-14T01:43:17;10.90;99.90
37300;DHT22;23184;51.902;12.836;2023-03-14T01:51:07;11.00;99.90
37300;DHT22;23184;51.902;12.836;2023-03-14T01:53:35;10.90;99.90
37300;DHT22;23184;51.902;12.836;2023-03-14T01:56:01;10.90;99.90
37300;DHT22;23184;51.902;12.836;2023-03-14T01:58:30;10.80;99.90
37300;DHT22;23184;51.902;12.836;2023-03-14T02:00:59;10.80;99.90
37300;DHT22;23184;51.902;12.836;2023-03-14T02:03:27;11.00;99.90
37300;DHT22;23184;51.902;12.836;2023-03-14T02:05:57;11.00;99.90
37300;DHT22;23184;51.902;12.836;2023-03-14T02:08:27;11.00;99.90
37300;DHT22;23184;51.902;12.836;2023-03-14T02:10:52;10.90;99.90
37300;DHT22;23184;51.902;12.836;2023-03-14T02:13:19;10.90;99.90
37300;DHT22;23184;51.902;12.836;2023-03-14T02:15:47;11.00;99.90
37300;DHT22;23184;51.902;12.836;2023-03-14T02:18:13;11.10;99.90
37300;DHT22;23184;51.902;12.836;2023-03-14T02:21:00;11.10;99.90
37300;DHT22;23184;51.902;12.836;2023-03-14T02:23:45;11.10;99.90
37300;DHT22;23184;51.902;12.836;2023-03-14T02:26:21;11.00;99.90
37300;DHT22;23184;51.902;12.836;2023-03-14T02:28:48;11.10;99.90
37300;DHT22;23184;51.902;12.836;2023-03-14T02:31:14;10.90;99.90
37300;DHT22;23184;51.902;12.836;2023-03-14T02:33:40;11.10;99.90
37300;DHT22;23184;51.902;12.836;2023-03-14T02:36:09;11.10;99.90
37300;DHT22;23184;51.902;12.836;2023-03-14T02:41:06;10.90;99.90
37300;DHT22;23184;51.902;12.836;2023-03-14T02:43:32;11.00;99.90
37300;DHT22;23184;51.902;12.836;2023-03-14T02:45:58;10.90;99.90
37300;DHT22;23184;51.902;12.836;2023-03-14T02:48:35;10.80;99.90
37300;DHT22;23184;51.902;12.836;2023-03-14T02:51:04;10.90;99.90
37300;DHT22;23184;51.902;12.836;2023-03-14T02:53:33;10.90;99.90
37300;DHT22;23184;51.902;12.836;2023-03-14T02:55:59;10.80;99.90
37300;DHT22;23184;51.902;12.836;2023-03-14T02:58:25;10.80;99.90
37300;DHT22;23184;51.902;12.836;2023-03-14T03:00:51;10.80;99.90
37300;DHT22;23184;51.902;12.836;2023-03-14T03:03:17;10.70;99.90
37300;DHT22;23184;51.902;12.836;2023-03-14T03:05:42;10.80;99.90
37300;DHT22;23184;51.902;12.836;2023-03-14T03:08:09;10.80;99.90
37300;DHT22;23184;51.902;12.836;2023-03-14T03:10:35;10.70;99.90
37300;DHT22;23184;51.902;12.836;2023-03-14T03:13:00;10.60;99.90
37300;DHT22;23184;51.902;12.836;2023-03-14T03:15:26;10.70;99.90
37300;DHT22;23184;51.902;12.836;2023-03-14T03:17:52;10.70;99.90
37300;DHT22;23184;51.902;12.836;2023-03-14T03:20:17;10.80;99.90
37300;DHT22;23184;51.902;12.836;2023-03-14T03:22:43;10.90;99.90
37300;DHT22;23184;51.902;12.836;2023-03-14T03:25:09;11.00;99.90
37300;DHT22;23184;51.902;12.836;2023-03-14T03:27:36;10.90;99.90
37300;DHT22;23184;51.902;12.836;2023-03-14T03:30:05;10.90;99.90
37300;DHT22;23184;51.902;12.836;2023-03-14T03:32:31;10.90;99.90
37300;DHT22;23184;51.902;12.836;2023-03-14T03:34:57;10.90;99.90
37300;DHT22;23184;51.902;12.836;2023-03-14T03:37:22;10.90;99.90
37300;DHT22;23184;51.902;12.836;2023-03-14T03:39:50;10.80;99.90
37300;DHT22;23184;51.902;12.836;2023-03-14T03:42:16;10.60;99.90
37300;DHT22;23184;51.902;12.836;2023-03-14T03:44:41;10.70;99.90
37300;DHT22;23184;51.902;12.836;2023-03-14T03:47:07;10.80;99.90
37300;DHT22;23184;51.902;12.836;2023-03-14T03:49:32;10.80;99.90
37300;DHT22;23184;51.902;12.836;2023-03-14T03:51:58;10.80;99.90
37300;DHT22;23184;51.902;12.836;2023-03-14T03:54:24;10.80;99.90
37300;DHT22;23184;51.902;12.836;2023-03-14T03:56:50;10.80;99.90
37300;DHT22;23184;51.902;12.836;2023-03-14T03:59:16;10.80;99.90
37300;DHT22;23184;51.902;12.836;2023-03-14T04:01:41;10.80;99.90
37300;DHT22;23184;51.902;12.836;2023-03-14T04:04:07;10.80;99.90
37300;DHT22;23184;51.902;12.836;2023-03-14T04:06:32;10.80;99.90
37300;DHT22;23184;51.902;12.836;2023-03-14T04:08:58;10.80;99.90
37300;DHT22;23184;51.902;12.836;2023-03-14T04:11:24;10.90;99.90
37300;DHT22;23184;51.902;12.836;2023-03-14T04:13:49;11.00;99.90
37300;DHT22;23184;51.902;12.836;2023-03-14T04:16:18;10.90;99.90
37300;DHT22;23184;51.902;12.836;2023-03-14T04:18:44;10.90;99.90
37300;DHT22;23184;51.902;12.836;2023-03-14T04:21:10;10.80;99.90
37300;DHT22;23184;51.902;12.836;2023-03-14T04:23:35;10.70;99.90
37300;DHT22;23184;51.902;12.836;2023-03-14T04:26:02;10.80;99.90
37300;DHT22;23184;51.902;12.836;2023-03-14T04:28:27;10.70;99.90
37300;DHT22;23184;51.902;12.836;2023-03-14T04:30:53;10.70;99.90
37300;DHT22;23184;51.902;12.836;2023-03-14T04:33:18;10.70;99.90
37300;DHT22;23184;51.902;12.836;2023-03-14T04:35:45;10.60;99.90
37300;DHT22;23184;51.902;12.836;2023-03-14T04:38:11;10.40;99.90
37300;DHT22;23184;51.902;12.836;2023-03-14T04:40:38;10.40;99.90
37300;DHT22;23184;51.902;12.836;2023-03-14T04:43:04;10.60;99.90
37300;DHT22;23184;51.902;12.836;2023-03-14T04:45:29;10.70;99.90
37300;DHT22;23184;51.902;12.836;2023-03-14T04:47:55;10.70;99.90
37300;DHT22;23184;51.902;12.836;2023-03-14T04:50:20;10.80;99.90
37300;DHT22;23184;51.902;12.836;2023-03-14T04:52:46;10.70;99.90
37300;DHT22;23184;51.902;12.836;2023-03-14T04:55:11;10.70;99.90
37300;DHT22;23184;51.902;12.836;2023-03-14T04:57:37;10.80;99.90
37300;DHT22;23184;51.902;12.836;2023-03-14T05:00:03;10.70;99.90
37300;DHT22;23184;51.902;12.836;2023-03-14T05:02:31;10.70;99.90
37300;DHT22;23184;51.902;12.836;2023-03-14T05:04:57;10.80;99.90
37300;DHT22;23184;51.902;12.836;2023-03-14T05:07:22;10.60;99.90
37300;DHT22;23184;51.902;12.836;2023-03-14T05:09:48;10.70;99.90
37300;DHT22;23184;51.902;12.836;2023-03-14T05:12:13;10.60;99.90
37300;DHT22;23184;51.902;12.836;2023-03-14T05:14:39;10.70;99.90
37300;DHT22;23184;51.902;12.836;2023-03-14T05:17:04;10.60;99.90
37300;DHT22;23184;51.902;12.836;2023-03-14T05:19:30;10.60;99.90
37300;DHT22;23184;51.902;12.836;2023-03-14T05:21:56;10.60;99.90
37300;DHT22;23184;51.902;12.836;2023-03-14T05:24:22;10.50;99.90
37300;DHT22;23184;51.902;12.836;2023-03-14T05:26:47;10.60;99.90
37300;DHT22;23184;51.902;12.836;2023-03-14T05:29:12;10.50;99.90
37300;DHT22;23184;51.902;12.836;2023-03-14T05:31:38;10.50;99.90
37300;DHT22;23184;51.902;12.836;2023-03-14T05:34:03;10.60;99.90
37300;DHT22;23184;51.902;12.836;2023-03-14T05:36:29;10.50;99.90
37300;DHT22;23184;51.902;12.836;2023-03-14T05:38:54;10.40;99.90
37300;DHT22;23184;51.902;12.836;2023-03-14T05:41:20;10.50;99.90
37300;DHT22;23184;51.902;12.836;2023-03-14T05:43:45;10.60;99.90
37300;DHT22;23184;51.902;12.836;2023-03-14T05:46:11;10.50;99.90
37300;DHT22;23184;51.902;12.836;2023-03-14T05:48:36;10.60;99.90
37300;DHT22;23184;51.902;12.836;2023-03-14T05:51:02;10.60;99.90
37300;DHT22;23184;51.902;12.836;2023-03-14T05:53:27;10.70;99.90
37300;DHT22;23184;51.902;12.836;2023-03-14T05:55:55;10.60;99.90
37300;DHT22;23184;51.902;12.836;2023-03-14T05:58:20;10.60;99.90
37300;DHT22;23184;51.902;12.836;2023-03-14T06:00:46;10.60;99.90
37300;DHT22;23184;51.902;12.836;2023-03-14T06:03:12;10.70;99.90
37300;DHT22;23184;51.902;12.836;2023-03-14T06:05:37;10.70;99.90
37300;DHT22;23184;51.902;12.836;2023-03-14T06:08:03;10.70;99.90
37300;DHT22;23184;51.902;12.836;2023-03-14T06:10:29;10.70;99.90
37300;DHT22;23184;51.902;12.836;2023-03-14T06:12:54;10.90;99.90
37300;DHT22;23184;51.902;12.836;2023-03-14T06:15:20;10.90;99.90
37300;DHT22;23184;51.902;12.836;2023-03-14T06:17:46;10.90;99.90
37300;DHT22;23184;51.902;12.836;2023-03-14T06:20:12;11.00;99.90
37300;DHT22;23184;51.902;12.836;2023-03-14T06:22:37;10.90;99.90
37300;DHT22;23184;51.902;12.836;2023-03-14T06:25:04;10.80;99.90
37300;DHT22;23184;51.902;12.836;2023-03-14T06:27:29;10.80;99.90
37300;DHT22;23184;51.902;12.836;2023-03-14T06:29:55;10.80;99.90
37300;DHT22;23184;51.902;12.836;2023-03-14T06:32:20;10.80;99.90
37300;DHT22;23184;51.902;12.836;2023-03-14T06:34:46;10.80;99.90
37300;DHT22;23184;51.902;12.836;2023-03-14T06:37:12;10.90;99.90
37300;DHT22;23184;51.902;12.836;2023-03-14T06:39:37;10.90;99.90
37300;DHT22;23184;51.902;12.836;2023-03-14T06:42:04;10.80;99.90
37300;DHT22;23184;51.902;12.836;2023-03-14T06:44:30;10.80;99.90
37300;DHT22;23184;51.902;12.836;2023-03-14T06:46:55;10.80;99.90
37300;DHT22;23184;51.902;12.836;2023-03-14T06:49:21;10.80;99.90
37300;DHT22;23184;51.902;12.836;2023-03-14T06:51:46;10.90;99.90
37300;DHT22;23184;51.902;12.836;2023-03-14T06:54:12;10.90;99.90
37300;DHT22;23184;51.902;12.836;2023-03-14T06:56:37;10.90;99.90
37300;DHT22;23184;51.902;12.836;2023-03-14T06:59:03;11.00;99.90
37300;DHT22;23184;51.902;12.836;2023-03-14T07:01:30;11.00;99.90
37300;DHT22;23184;51.902;12.836;2023-03-14T07:03:56;10.90;99.90
37300;DHT22;23184;51.902;12.836;2023-03-14T07:06:22;10.80;99.90
37300;DHT22;23184;51.902;12.836;2023-03-14T07:08:48;10.80;99.90
37300;DHT22;23184;51.902;12.836;2023-03-14T07:11:13;10.70;99.90
37300;DHT22;23184;51.902;12.836;2023-03-14T07:13:39;10.70;99.90
37300;DHT22;23184;51.902;12.836;2023-03-14T07:16:05;10.80;99.90
37300;DHT22;23184;51.902;12.836;2023-03-14T07:18:31;10.80;99.90
37300;DHT22;23184;51.902;12.836;2023-03-14T07:20:57;10.90;99.90
37300;DHT22;23184;51.902;12.836;2023-03-14T07:23:22;10.90;99.90
37300;DHT22;23184;51.902;12.836;2023-03-14T07:25:48;11.00;99.90
37300;DHT22;23184;51.902;12.836;2023-03-14T07:28:13;11.00;99.90
37300;DHT22;23184;51.902;12.836;2023-03-14T07:30:39;11.00;99.90
37300;DHT22;23184;51.902;12.836;2023-03-14T07:33:04;11.00;99.90
37300;DHT22;23184;51.902;12.836;2023-03-14T07:35:30;11.00;99.90
37300;DHT22;23184;51.902;12.836;2023-03-14T07:37:55;11.10;99.90
37300;DHT22;23184;51.902;12.836;2023-03-14T07:40:21;11.10;99.90
37300;DHT22;23184;51.902;12.836;2023-03-14T07:42:46;11.20;99.90
37300;DHT22;23184;51.902;12.836;2023-03-14T07:45:12;11.20;99.90
37300;DHT22;23184;51.902;12.836;2023-03-14T07:47:37;11.20;99.90
37300;DHT22;23184;51.902;12.836;2023-03-14T07:50:04;11.20;99.90
37300;DHT22;23184;51.902;12.836;2023-03-14T07:52:30;11.30;99.90
37300;DHT22;23184;51.902;12.836;2023-03-14T07:54:55;11.30;99.90
37300;DHT22;23184;51.902;12.836;2023-03-14T07:57:21;11.40;99.90
37300;DHT22;23184;51.902;12.836;2023-03-14T07:59:47;11.40;99.90
37300;DHT22;23184;51.902;12.836;2023-03-14T08:02:12;11.40;99.90
37300;DHT22;23184;51.902;12.836;2023-03-14T08:04:39;11.40;99.90
37300;DHT22;23184;51.902;12.836;2023-03-14T08:07:05;11.30;99.90
37300;DHT22;23184;51.902;12.836;2023-03-14T08:09:30;11.40;99.90
37300;DHT22;23184;51.902;12.836;2023-03-14T08:11:56;11.40;99.90
37300;DHT22;23184;51.902;12.836;2023-03-14T08:14:21;11.40;99.90
37300;DHT22;23184;51.902;12.836;2023-03-14T08:16:49;11.40;99.90
37300;DHT22;23184;51.902;12.836;2023-03-14T08:19:15;11.50;99.90
37300;DHT22;23184;51.902;12.836;2023-03-14T08:21:40;11.70;99.90
37300;DHT22;23184;51.902;12.836;2023-03-14T08:24:06;11.80;99.90
37300;DHT22;23184;51.902;12.836;2023-03-14T08:26:31;12.20;99.90
37300;DHT22;23184;51.902;12.836;2023-03-14T08:28:57;12.20;99.90
37300;DHT22;23184;51.902;12.836;2023-03-14T08:31:22;12.50;99.90
37300;DHT22;23184;51.902;12.836;2023-03-14T08:33:48;12.40;99.90
37300;DHT22;23184;51.902;12.836;2023-03-14T08:36:13;12.10;99.90
37300;DHT22;23184;51.902;12.836;2023-03-14T08:38:39;12.10;99.90
37300;DHT22;23184;51.902;12.836;2023-03-14T08:41:08;12.00;99.90
37300;DHT22;23184;51.902;12.836;2023-03-14T08:43:34;12.00;99.90
37300;DHT22;23184;51.902;12.836;2023-03-14T08:46:00;12.10;99.90
37300;DHT22;23184;51.902;12.836;2023-03-14T08:48:26;12.40;99.90
37300;DHT22;23184;51.902;12.836;2023-03-14T08:50:52;12.60;99.90
37300;DHT22;23184;51.902;12.836;2023-03-14T08:53:18;12.30;99.90
37300;DHT22;23184;51.902;12.836;2023-03-14T08:55:43;12.30;99.90
37300;DHT22;23184;51.902;12.836;2023-03-14T08:58:09;12.40;99.90
37300;DHT22;23184;51.902;12.836;2023-03-14T09:00:35;12.40;99.90
37300;DHT22;23184;51.902;12.836;2023-03-14T09:03:00;12.30;99.90
37300;DHT22;23184;51.902;12.836;2023-03-14T09:05:26;12.40;99.90
37300;DHT22;23184;51.902;12.836;2023-03-14T09:07:51;12.40;99.90
37300;DHT22;23184;51.902;12.836;2023-03-14T09:10:17;12.40;99.90
37300;DHT22;23184;51.902;12.836;2023-03-14T09:12:42;12.40;99.90
37300;DHT22;23184;51.902;12.836;2023-03-14T09:15:08;12.50;99.90
37300;DHT22;23184;51.902;12.836;2023-03-14T09:17:34;12.40;99.90
37300;DHT22;23184;51.902;12.836;2023-03-14T09:19:59;12.50;99.90
37300;DHT22;23184;51.902;12.836;2023-03-14T09:22:25;12.40;99.90
37300;DHT22;23184;51.902;12.836;2023-03-14T09:24:51;12.50;99.90
37300;DHT22;23184;51.902;12.836;2023-03-14T09:27:16;12.50;99.90
37300;DHT22;23184;51.902;12.836;2023-03-14T09:29:42;12.50;99.90
37300;DHT22;23184;51.902;12.836;2023-03-14T09:32:07;12.50;99.90
37300;DHT22;23184;51.902;12.836;2023-03-14T09:34:33;12.40;99.90
37300;DHT22;23184;51.902;12.836;2023-03-14T09:36:59;12.40;99.90
37300;DHT22;23184;51.902;12.836;2023-03-14T09:39:25;12.40;99.90
37300;DHT22;23184;51.902;12.836;2023-03-14T09:41:52;12.30;99.90
37300;DHT22;23184;51.902;12.836;2023-03-14T09:44:29;12.30;99.90
37300;DHT22;23184;51.902;12.836;2023-03-14T09:46:57;12.30;99.90
37300;DHT22;23184;51.902;12.836;2023-03-14T09:49:39;12.30;99.90
37300;DHT22;23184;51.902;12.836;2023-03-14T09:52:13;12.20;99.90
37300;DHT22;23184;51.902;12.836;2023-03-14T09:54:52;12.30;99.90
37300;DHT22;23184;51.902;12.836;2023-03-14T09:57:23;12.20;99.90
37300;DHT22;23184;51.902;12.836;2023-03-14T09:59:50;12.20;99.90
37300;DHT22;23184;51.902;12.836;2023-03-14T10:02:26;12.20;99.90
37300;DHT22;23184;51.902;12.836;2023-03-14T10:04:54;12.20;99.90
37300;DHT22;23184;51.902;12.836;2023-03-14T10:07:38;12.20;99.90
37300;DHT22;23184;51.902;12.836;2023-03-14T10:10:19;12.20;99.90
37300;DHT22;23184;51.902;12.836;2023-03-14T10:12:55;12.30;99.90
37300;DHT22;23184;51.902;12.836;2023-03-14T10:15:29;12.30;99.90
37300;DHT22;23184;51.902;12.836;2023-03-14T10:17:55;12.40;99.90
37300;DHT22;23184;51.902;12.836;2023-03-14T10:20:33;12.40;99.90
37300;DHT22;23184;51.902;12.836;2023-03-14T10:23:05;12.40;99.90
37300;DHT22;23184;51.902;12.836;2023-03-14T10:25:34;12.40;99.90
37300;DHT22;23184;51.902;12.836;2023-03-14T10:28:00;12.40;99.90
37300;DHT22;23184;51.902;12.836;2023-03-14T10:33:09;12.30;99.90
37300;DHT22;23184;51.902;12.836;2023-03-14T10:35:35;12.20;99.90
37300;DHT22;23184;51.902;12.836;2023-03-14T10:38:02;12.20;99.90
37300;DHT22;23184;51.902;12.836;2023-03-14T10:40:39;12.30;99.90
37300;DHT22;23184;51.902;12.836;2023-03-14T10:43:07;12.20;99.90
37300;DHT22;23184;51.902;12.836;2023-03-14T10:45:40;12.20;99.90
37300;DHT22;23184;51.902;12.836;2023-03-14T10:48:20;12.30;99.90
37300;DHT22;23184;51.902;12.836;2023-03-14T10:53:42;12.50;99.90
37300;DHT22;23184;51.902;12.836;2023-03-14T10:56:15;12.60;99.90
37300;DHT22;23184;51.902;12.836;2023-03-14T10:58:44;12.60;99.90
37300;DHT22;23184;51.902;12.836;2023-03-14T11:01:36;12.60;99.90
37300;DHT22;23184;51.902;12.836;2023-03-14T11:04:29;12.60;99.90
37300;DHT22;23184;51.902;12.836;2023-03-14T11:12:41;12.70;99.90
37300;DHT22;23184;51.902;12.836;2023-03-14T11:17:53;12.80;99.90
37300;DHT22;23184;51.902;12.836;2023-03-14T11:20:42;12.70;99.90
37300;DHT22;23184;51.902;12.836;2023-03-14T11:23:18;12.70;99.90
37300;DHT22;23184;51.902;12.836;2023-03-14T11:28:36;12.80;99.90
37300;DHT22;23184;51.902;12.836;2023-03-14T11:31:23;12.70;99.90
37300;DHT22;23184;51.902;12.836;2023-03-14T11:34:15;12.70;99.90
37300;DHT22;23184;51.902;12.836;2023-03-14T11:39:21;12.80;99.90
37300;DHT22;23184;51.902;12.836;2023-03-14T11:41:50;12.80;99.90
37300;DHT22;23184;51.902;12.836;2023-03-14T11:44:26;12.70;99.90
37300;DHT22;23184;51.902;12.836;2023-03-14T11:46:57;12.70;99.90
37300;DHT22;23184;51.902;12.836;2023-03-14T11:49:37;12.70;99.90
37300;DHT22;23184;51.902;12.836;2023-03-14T11:52:16;12.70;99.90
37300;DHT22;23184;51.902;12.836;2023-03-14T11:54:47;12.80;99.90
37300;DHT22;23184;51.902;12.836;2023-03-14T11:57:19;13.30;99.90
37300;DHT22;23184;51.902;12.836;2023-03-14T11:59:55;13.30;99.90
37300;DHT22;23184;51.902;12.836;2023-03-14T12:05:30;13.30;99.90
37300;DHT22;23184;51.902;12.836;2023-03-14T12:08:16;13.30;99.90
37300;DHT22;23184;51.902;12.836;2023-03-14T12:10:51;13.20;99.90
37300;DHT22;23184;51.902;12.836;2023-03-14T12:13:18;13.30;99.90
37300;DHT22;23184;51.902;12.836;2023-03-14T12:15:59;13.40;99.90
37300;DHT22;23184;51.902;12.836;2023-03-14T12:18:30;13.50;99.90
37300;DHT22;23184;51.902;12.836;2023-03-14T12:21:02;13.70;99.90
37300;DHT22;23184;51.902;12.836;2023-03-14T12:23:40;13.90;99.90
37300;DHT22;23184;51.902;12.836;2023-03-14T12:28:36;13.70;99.90
37300;DHT22;23184;51.902;12.836;2023-03-14T12:34:25;13.60;99.90
37300;DHT22;23184;51.902;12.836;2023-03-14T12:40:06;13.20;99.90
37300;DHT22;23184;51.902;12.836;2023-03-14T12:42:45;13.20;99.90
37300;DHT22;23184;51.902;12.836;2023-03-14T12:45:32;13.10;99.90
37300;DHT22;23184;51.902;12.836;2023-03-14T12:48:22;13.10;99.90
37300;DHT22;23184;51.902;12.836;2023-03-14T12:51:03;13.10;99.90
37300;DHT22;23184;51.902;12.836;2023-03-14T12:53:52;13.00;99.90
37300;DHT22;23184;51.902;12.836;2023-03-14T12:56:45;12.90;99.90
37300;DHT22;23184;51.902;12.836;2023-03-14T12:59:31;12.70;99.90
37300;DHT22;23184;51.902;12.836;2023-03-14T13:02:01;12.60;99.90
37300;DHT22;23184;51.902;12.836;2023-03-14T13:04:52;12.70;99.90
37300;DHT22;23184;51.902;12.836;2023-03-14T13:12:48;12.70;99.90
37300;DHT22;23184;51.902;12.836;2023-03-14T13:15:41;12.70;99.90
37300;DHT22;23184;51.902;12.836;2023-03-14T13:18:14;12.60;99.90
37300;DHT22;23184;51.902;12.836;2023-03-14T13:20:53;12.70;99.90
37300;DHT22;23184;51.902;12.836;2023-03-14T13:23:25;12.70;99.90
37300;DHT22;23184;51.902;12.836;2023-03-14T13:25:51;12.80;99.90
37300;DHT22;23184;51.902;12.836;2023-03-14T13:28:17;12.60;99.90
37300;DHT22;23184;51.902;12.836;2023-03-14T13:30:45;12.60;99.90
37300;DHT22;23184;51.902;12.836;2023-03-14T13:33:20;12.70;99.90
37300;DHT22;23184;51.902;12.836;2023-03-14T13:35:59;12.80;99.90
37300;DHT22;23184;51.902;12.836;2023-03-14T13:38:29;12.90;99.90
37300;DHT22;23184;51.902;12.836;2023-03-14T13:40:57;13.00;99.90
37300;DHT22;23184;51.902;12.836;2023-03-14T13:43:43;13.20;99.90
37300;DHT22;23184;51.902;12.836;2023-03-14T13:46:22;13.30;99.90
37300;DHT22;23184;51.902;12.836;2023-03-14T13:48:57;13.30;99.90
37300;DHT22;23184;51.902;12.836;2023-03-14T13:51:24;13.20;99.90
37300;DHT22;23184;51.902;12.836;2023-03-14T13:53:53;13.10;99.90
37300;DHT22;23184;51.902;12.836;2023-03-14T13:56:28;13.10;99.90
37300;DHT22;23184;51.902;12.836;2023-03-14T13:58:54;13.00;99.90
37300;DHT22;23184;51.902;12.836;2023-03-14T14:01:24;13.00;99.90
37300;DHT22;23184;51.902;12.836;2023-03-14T14:03:55;13.00;99.90
37300;DHT22;23184;51.902;12.836;2023-03-14T14:06:35;13.00;99.90
37300;DHT22;23184;51.902;12.836;2023-03-14T14:09:26;13.00;99.90
37300;DHT22;23184;51.902;12.836;2023-03-14T14:12:10;13.00;99.90
37300;DHT22;23184;51.902;12.836;2023-03-14T14:15:03;13.30;99.90
37300;DHT22;23184;51.902;12.836;2023-03-14T14:17:35;13.70;99.90
37300;DHT22;23184;51.902;12.836;2023-03-14T14:20:05;13.70;99.90
37300;DHT22;23184;51.902;12.836;2023-03-14T14:22:32;13.50;99.90
37300;DHT22;23184;51.902;12.836;2023-03-14T14:24:57;13.30;99.90
37300;DHT22;23184;51.902;12.836;2023-03-14T14:27:35;13.20;99.90
37300;DHT22;23184;51.902;12.836;2023-03-14T14:30:06;13.40;99.90
37300;DHT22;23184;51.902;12.836;2023-03-14T14:32:40;13.50;99.90
37300;DHT22;23184;51.902;12.836;2023-03-14T14:35:06;13.50;99.90
37300;DHT22;23184;51.902;12.836;2023-03-14T14:37:34;13.50;99.90
37300;DHT22;23184;51.902;12.836;2023-03-14T14:40:26;13.50;99.90
37300;DHT22;23184;51.902;12.836;2023-03-14T14:42:51;13.30;99.90
37300;DHT22;23184;51.902;12.836;2023-03-14T14:45:19;13.30;99.90
37300;DHT22;23184;51.902;12.836;2023-03-14T14:47:54;13.20;99.90
37300;DHT22;23184;51.902;12.836;2023-03-14T14:52:56;13.20;99.90
37300;DHT22;23184;51.902;12.836;2023-03-14T14:55:22;13.20;99.90
37300;DHT22;23184;51.902;12.836;2023-03-14T14:57:55;13.10;99.90
37300;DHT22;23184;51.902;12.836;2023-03-14T15:00:25;13.00;99.90
37300;DHT22;23184;51.902;12.836;2023-03-14T15:02:58;12.90;99.90
37300;DHT22;23184;51.902;12.836;2023-03-14T15:05:27;12.70;99.90
37300;DHT22;23184;51.902;12.836;2023-03-14T15:07:53;10.30;99.90
37300;DHT22;23184;51.902;12.836;2023-03-14T15:10:21;9.30;99.90
37300;DHT22;23184;51.902;12.836;2023-03-14T15:12:46;9.00;99.90
37300;DHT22;23184;51.902;12.836;2023-03-14T15:15:13;8.60;99.90
37300;DHT22;23184;51.902;12.836;2023-03-14T15:17:39;8.40;99.90
37300;DHT22;23184;51.902;12.836;2023-03-14T15:20:09;8.30;99.90
37300;DHT22;23184;51.902;12.836;2023-03-14T15:22:35;8.20;99.90
37300;DHT22;23184;51.902;12.836;2023-03-14T15:25:00;8.10;99.90
37300;DHT22;23184;51.902;12.836;2023-03-14T15:27:28;8.10;99.90
37300;DHT22;23184;51.902;12.836;2023-03-14T15:29:55;7.90;99.90
37300;DHT22;23184;51.902;12.836;2023-03-14T15:32:20;7.90;99.90
37300;DHT22;23184;51.902;12.836;2023-03-14T15:34:46;7.80;99.90
37300;DHT22;23184;51.902;12.836;2023-03-14T15:37:13;7.60;99.90
37300;DHT22;23184;51.902;12.836;2023-03-14T15:39:44;7.40;99.90
37300;DHT22;23184;51.902;12.836;2023-03-14T15:42:09;7.20;99.90
37300;DHT22;23184;51.902;12.836;2023-03-14T15:44:35;7.00;99.90
37300;DHT22;23184;51.902;12.836;2023-03-14T15:47:01;7.00;99.90
37300;DHT22;23184;51.902;12.836;2023-03-14T15:49:27;7.00;99.90
37300;DHT22;23184;51.902;12.836;2023-03-14T15:51:53;6.60;99.90
37300;DHT22;23184;51.902;12.836;2023-03-14T15:54:18;5.90;99.90
37300;DHT22;23184;51.902;12.836;2023-03-14T15:56:44;5.20;99.90
37300;DHT22;23184;51.902;12.836;2023-03-14T15:59:09;4.70;99.90
37300;DHT22;23184;51.902;12.836;2023-03-14T16:01:35;4.50;99.90
37300;DHT22;23184;51.902;12.836;2023-03-14T16:04:00;4.20;99.90
37300;DHT22;23184;51.902;12.836;2023-03-14T16:06:27;4.10;99.90
37300;DHT22;23184;51.902;12.836;2023-03-14T16:08:53;4.00;99.90
37300;DHT22;23184;51.902;12.836;2023-03-14T16:11:18;3.90;99.90
37300;DHT22;23184;51.902;12.836;2023-03-14T16:13:45;3.80;99.90